Time;durP1;ratioP1;P1;durP2;ratioP2;P2;SDS_P1;SDS_P2;PMS_P1;PMS_P2;Temp;Humidity;BMP_temperature;BMP_pressure;BME280_temperature;BME280_humidity;BME280_pressure;Samples;Min_cycle;Max_cycle;Signal;HPM_P1;HPM_P2
2021/05/16 00:01:18;;;;;;;2.87;2.00;;;10.40;97.30;;;;;;4935806;29;20175;-85
2021/05/16 00:03:44;;;;;;;3.70;2.57;;;10.40;97.30;;;;;;4955998;28;20218;-84
2021/05/16 00:06:10;;;;;;;2.53;2.00;;;10.30;97.30;;;;;;4956419;28;20693;-87
2021/05/16 00:08:35;;;;;;;2.30;2.17;;;10.40;97.30;;;;;;4939522;29;20171;-85
2021/05/16 00:11:02;;;;;;;4.13;2.50;;;10.40;97.30;;;;;;4939780;29;20650;-85
2021/05/16 00:13:27;;;;;;;2.50;2.23;;;10.50;97.30;;;;;;4939228;29;20183;-85
2021/05/16 00:15:53;;;;;;;2.70;2.50;;;10.50;97.30;;;;;;4938773;29;20437;-85
2021/05/16 00:18:19;;;;;;;3.40;2.37;;;10.50;97.30;;;;;;4956495;29;20175;-87
2021/05/16 00:20:45;;;;;;;5.70;2.37;;;10.40;97.30;;;;;;4939374;29;20274;-85
2021/05/16 00:23:11;;;;;;;2.77;2.10;;;10.40;97.30;;;;;;4939114;29;20206;-85
2021/05/16 00:25:37;;;;;;;2.60;2.00;;;10.30;97.30;;;;;;4939153;29;20215;-85
2021/05/16 00:28:03;;;;;;;3.20;2.57;;;10.30;97.30;;;;;;4939506;29;20414;-85
2021/05/16 00:30:29;;;;;;;2.43;2.17;;;10.20;97.30;;;;;;4939780;29;20530;-85
2021/05/16 00:32:56;;;;;;;3.20;2.60;;;10.10;97.30;;;;;;4938958;29;20478;-85
2021/05/16 00:35:24;;;;;;;3.40;2.13;;;10.10;97.30;;;;;;4939433;29;20692;-85
2021/05/16 00:37:50;;;;;;;3.83;2.47;;;10.00;97.30;;;;;;4939273;29;20453;-87
2021/05/16 00:40:17;;;;;;;3.40;2.40;;;9.90;97.30;;;;;;4939412;29;20454;-85
2021/05/16 00:42:44;;;;;;;2.87;2.33;;;9.80;97.30;;;;;;4939943;29;20193;-85
2021/05/16 00:45:21;;;;;;;2.50;2.20;;;9.80;97.30;;;;;;4939947;28;20882;-85
2021/05/16 00:47:49;;;;;;;3.50;2.27;;;9.80;97.30;;;;;;4940662;29;20497;-85
2021/05/16 00:50:17;;;;;;;3.30;2.37;;;9.80;97.30;;;;;;4940478;29;20770;-85
2021/05/16 00:52:43;;;;;;;3.73;2.20;;;9.70;97.30;;;;;;4940300;29;20926;-85
2021/05/16 00:55:11;;;;;;;3.50;2.50;;;9.70;97.30;;;;;;4940003;28;20526;-85
2021/05/16 00:57:36;;;;;;;5.93;2.50;;;9.70;97.30;;;;;;4940660;29;20179;-85
2021/05/16 01:00:05;;;;;;;4.00;3.00;;;9.60;97.30;;;;;;4957759;29;20431;-85
2021/05/16 01:02:31;;;;;;;2.90;2.50;;;9.60;97.30;;;;;;4939691;29;20724;-85
2021/05/16 01:04:56;;;;;;;3.30;2.53;;;9.60;97.30;;;;;;4936194;29;20550;-85
2021/05/16 01:07:22;;;;;;;3.83;2.40;;;9.60;97.30;;;;;;4935721;29;20677;-84
2021/05/16 01:09:47;;;;;;;3.07;2.47;;;9.60;97.30;;;;;;4936003;29;20203;-85
2021/05/16 01:12:13;;;;;;;3.07;2.53;;;9.60;97.30;;;;;;4936655;29;20184;-84
2021/05/16 01:14:43;;;;;;;4.60;2.60;;;9.60;97.30;;;;;;4934139;29;20190;-85
2021/05/16 01:17:09;;;;;;;3.20;2.40;;;9.60;97.30;;;;;;4935179;29;20203;-84
2021/05/16 01:19:34;;;;;;;2.83;2.30;;;9.60;97.30;;;;;;4934900;29;20852;-85
2021/05/16 01:22:03;;;;;;;3.70;2.73;;;9.60;97.30;;;;;;4934981;29;20247;-84
2021/05/16 01:24:29;;;;;;;3.50;2.47;;;9.60;97.30;;;;;;4935003;29;20247;-85
2021/05/16 01:26:57;;;;;;;7.63;2.63;;;9.60;97.30;;;;;;4934812;29;20507;-84
2021/05/16 01:29:23;;;;;;;3.43;2.60;;;9.60;97.30;;;;;;4934518;29;20502;-85
2021/05/16 01:31:49;;;;;;;6.23;2.50;;;9.60;97.30;;;;;;4935974;29;20841;-84
2021/05/16 01:34:15;;;;;;;3.77;2.90;;;9.60;97.30;;;;;;4934521;29;20412;-84
2021/05/16 01:36:41;;;;;;;2.93;2.70;;;9.50;97.30;;;;;;4934568;29;20196;-85
2021/05/16 01:39:14;;;;;;;5.23;2.53;;;9.50;97.30;;;;;;4934530;29;20494;-86
2021/05/16 01:41:41;;;;;;;2.60;2.30;;;9.50;97.30;;;;;;4934328;29;20203;-84
2021/05/16 01:44:10;;;;;;;3.67;2.50;;;9.50;97.30;;;;;;4934746;29;20420;-85
2021/05/16 01:46:36;;;;;;;3.00;2.70;;;9.50;97.30;;;;;;4935795;29;20533;-85
2021/05/16 01:49:02;;;;;;;3.60;2.60;;;9.50;97.30;;;;;;4935852;29;20918;-86
2021/05/16 01:51:29;;;;;;;3.27;2.60;;;9.60;97.30;;;;;;4936160;29;20176;-85
2021/05/16 01:53:55;;;;;;;2.83;2.40;;;9.60;97.30;;;;;;4934738;29;20686;-86
2021/05/16 01:56:26;;;;;;;2.90;2.37;;;9.60;97.30;;;;;;4936893;29;20470;-86
2021/05/16 01:58:53;;;;;;;3.57;2.70;;;9.60;97.30;;;;;;4937671;29;20394;-85
2021/05/16 02:01:19;;;;;;;2.67;2.27;;;9.70;97.30;;;;;;4937764;29;20418;-86
2021/05/16 02:03:45;;;;;;;3.50;2.73;;;9.70;97.30;;;;;;4954924;29;20429;-86
2021/05/16 02:06:15;;;;;;;5.63;2.53;;;9.70;97.30;;;;;;4937702;29;20314;-87
2021/05/16 02:08:42;;;;;;;3.30;2.33;;;9.80;97.30;;;;;;4938117;29;20462;-87
2021/05/16 02:11:08;;;;;;;2.70;2.53;;;9.80;97.30;;;;;;4954306;29;20810;-86
2021/05/16 02:13:39;;;;;;;3.70;3.07;;;9.80;97.30;;;;;;4956314;29;20495;-86
2021/05/16 02:16:05;;;;;;;3.70;2.27;;;9.90;97.30;;;;;;4938773;29;20238;-86
2021/05/16 02:18:31;;;;;;;2.50;2.20;;;9.90;97.30;;;;;;4939427;29;20429;-87
2021/05/16 02:20:56;;;;;;;2.87;2.40;;;9.90;97.30;;;;;;4938910;29;20418;-86
2021/05/16 02:23:22;;;;;;;4.20;2.27;;;9.90;97.30;;;;;;4939119;29;20186;-87
2021/05/16 02:25:51;;;;;;;3.33;2.80;;;9.90;97.30;;;;;;4938291;29;20250;-86
2021/05/16 02:28:18;;;;;;;2.80;2.23;;;10.00;97.30;;;;;;4938732;29;20266;-86
2021/05/16 02:30:44;;;;;;;3.70;2.53;;;10.00;97.30;;;;;;4938450;29;20419;-85
2021/05/16 02:33:10;;;;;;;2.50;2.40;;;10.00;97.30;;;;;;4955667;29;20714;-86
2021/05/16 02:35:35;;;;;;;5.23;2.80;;;10.10;97.30;;;;;;4954761;28;20820;-85
2021/05/16 02:38:01;;;;;;;2.60;2.43;;;10.10;97.30;;;;;;4937823;29;20190;-86
2021/05/16 02:40:27;;;;;;;4.53;2.57;;;10.20;97.30;;;;;;4937867;29;20326;-87
2021/05/16 02:42:52;;;;;;;3.63;2.10;;;10.30;97.30;;;;;;4937756;29;20789;-85
2021/05/16 02:45:18;;;;;;;3.43;2.40;;;10.30;97.30;;;;;;4954993;28;20210;-86
2021/05/16 02:47:43;;;;;;;2.37;2.20;;;10.40;97.30;;;;;;4954948;29;20179;-86
2021/05/16 02:50:11;;;;;;;3.40;2.60;;;10.40;97.30;;;;;;4937636;29;20202;-86
2021/05/16 02:52:37;;;;;;;3.70;2.30;;;10.50;97.30;;;;;;4937423;29;20424;-89
2021/05/16 02:55:06;;;;;;;3.83;2.60;;;10.50;97.30;;;;;;4937150;28;20422;-86
2021/05/16 02:57:31;;;;;;;4.20;2.77;;;10.50;97.30;;;;;;4937548;29;20190;-84
2021/05/16 02:59:57;;;;;;;3.30;2.80;;;10.50;97.30;;;;;;4937003;29;20423;-85
2021/05/16 03:02:22;;;;;;;4.70;2.40;;;10.50;97.30;;;;;;4936201;29;20190;-84
2021/05/16 03:04:48;;;;;;;5.70;2.80;;;10.60;97.30;;;;;;4935988;29;20670;-87
2021/05/16 03:07:13;;;;;;;3.97;2.70;;;10.50;97.30;;;;;;4935929;29;20227;-86
2021/05/16 03:09:39;;;;;;;2.77;2.60;;;10.50;97.30;;;;;;4936230;29;20512;-85
2021/05/16 03:12:06;;;;;;;3.57;2.70;;;10.60;97.30;;;;;;4935904;29;20646;-85
2021/05/16 03:14:34;;;;;;;5.00;2.77;;;10.50;97.30;;;;;;4936231;29;20186;-86
2021/05/16 03:17:00;;;;;;;4.07;2.83;;;10.50;97.30;;;;;;4936194;29;20537;-86
2021/05/16 03:19:26;;;;;;;3.37;2.77;;;10.50;97.30;;;;;;4936456;29;20502;-86
2021/05/16 03:21:52;;;;;;;5.40;2.93;;;10.50;97.30;;;;;;4953614;29;20182;-87
2021/05/16 03:24:18;;;;;;;3.00;2.30;;;10.50;97.30;;;;;;4953777;29;20415;-87
2021/05/16 03:26:44;;;;;;;3.60;2.63;;;10.50;97.30;;;;;;4936250;29;20203;-86
2021/05/16 03:29:10;;;;;;;4.20;2.60;;;10.50;97.30;;;;;;4936216;29;20586;-85
2021/05/16 03:31:35;;;;;;;4.73;3.10;;;10.50;97.30;;;;;;4936467;29;20502;-85
2021/05/16 03:34:04;;;;;;;2.80;2.53;;;10.50;97.30;;;;;;4936286;29;21029;-85
2021/05/16 03:36:30;;;;;;;3.67;2.90;;;10.50;97.30;;;;;;4936545;28;20593;-85
2021/05/16 03:38:55;;;;;;;3.07;2.57;;;10.40;97.30;;;;;;4936332;29;20423;-86
2021/05/16 03:41:21;;;;;;;2.60;2.27;;;10.40;97.30;;;;;;4936962;29;20187;-86
2021/05/16 03:43:47;;;;;;;3.27;2.30;;;10.40;97.30;;;;;;4937310;29;20539;-87
2021/05/16 03:46:12;;;;;;;3.33;2.53;;;10.40;97.30;;;;;;4937502;29;20213;-86
2021/05/16 03:48:38;;;;;;;2.23;2.03;;;10.40;97.30;;;;;;4937554;29;20191;-86
2021/05/16 03:51:04;;;;;;;3.20;2.10;;;10.40;97.30;;;;;;4954599;29;20182;-85
2021/05/16 03:53:31;;;;;;;2.43;2.23;;;10.40;97.30;;;;;;4937413;29;20423;-85
2021/05/16 03:55:56;;;;;;;3.00;2.50;;;10.40;97.30;;;;;;4960278;23;20803;-89
2021/05/16 03:58:23;;;;;;;4.03;2.60;;;10.40;97.30;;;;;;4937222;29;20506;-89
2021/05/16 04:00:48;;;;;;;2.93;2.50;;;10.40;97.30;;;;;;4955488;29;20163;-89
2021/05/16 04:03:14;;;;;;;4.13;2.30;;;10.40;97.30;;;;;;4937233;29;20423;-90
2021/05/16 04:05:39;;;;;;;2.80;2.43;;;10.40;97.30;;;;;;4937097;29;20313;-89
2021/05/16 04:08:05;;;;;;;2.90;2.63;;;10.40;97.30;;;;;;4936514;29;20178;-89
2021/05/16 04:10:31;;;;;;;2.60;2.50;;;10.40;97.30;;;;;;4936102;29;20184;-90
2021/05/16 04:12:56;;;;;;;2.70;2.33;;;10.40;97.30;;;;;;4936236;29;20286;-89
2021/05/16 04:15:22;;;;;;;2.43;2.00;;;10.40;97.30;;;;;;4953566;29;20176;-89
2021/05/16 04:17:47;;;;;;;7.20;2.10;;;10.40;97.30;;;;;;4935811;29;20203;-89
2021/05/16 04:20:14;;;;;;;4.33;2.37;;;10.40;97.30;;;;;;4953436;29;20179;-90
2021/05/16 04:22:39;;;;;;;2.90;2.07;;;10.40;97.30;;;;;;4936259;29;20179;-89
2021/05/16 04:25:05;;;;;;;3.73;2.00;;;10.40;97.30;;;;;;4935856;29;20823;-90
2021/05/16 04:27:31;;;;;;;2.20;1.83;;;10.40;97.30;;;;;;4936034;29;20206;-89
2021/05/16 04:29:56;;;;;;;2.40;1.70;;;10.40;97.30;;;;;;4936244;29;20418;-89
2021/05/16 04:32:22;;;;;;;2.20;1.80;;;10.40;97.30;;;;;;4935848;29;20274;-89
2021/05/16 04:34:48;;;;;;;2.50;1.90;;;10.40;97.30;;;;;;4953092;29;20207;-89
2021/05/16 04:37:13;;;;;;;2.70;2.00;;;10.40;97.30;;;;;;4939331;28;20223;-94
2021/05/16 04:39:39;;;;;;;2.57;2.30;;;10.40;97.30;;;;;;4942280;29;20190;-89
2021/05/16 04:42:06;;;;;;;2.20;1.70;;;10.40;97.30;;;;;;4936436;29;20613;-90
2021/05/16 04:44:31;;;;;;;2.17;1.80;;;10.40;97.30;;;;;;4936126;29;20171;-90
2021/05/16 04:46:57;;;;;;;1.30;1.30;;;10.50;97.30;;;;;;4953440;29;20482;-89
2021/05/16 04:49:22;;;;;;;2.40;1.80;;;10.50;97.30;;;;;;4933166;28;20187;-89
2021/05/16 04:51:48;;;;;;;1.93;1.87;;;10.60;97.30;;;;;;4975811;28;20190;-89
2021/05/16 04:54:14;;;;;;;2.57;1.40;;;10.60;97.30;;;;;;4959390;28;20178;-89
2021/05/16 04:56:39;;;;;;;3.20;1.70;;;10.60;97.30;;;;;;4955986;29;20241;-89
2021/05/16 04:59:05;;;;;;;3.97;1.60;;;10.60;97.30;;;;;;4956015;29;20217;-89
2021/05/16 05:01:30;;;;;;;1.60;1.40;;;10.60;97.30;;;;;;4954110;29;20269;-89
2021/05/16 05:03:56;;;;;;;1.73;1.63;;;10.60;97.30;;;;;;4947212;29;20215;-89
2021/05/16 05:06:23;;;;;;;4.00;1.90;;;10.60;97.30;;;;;;4936151;29;20223;-89
2021/05/16 05:08:48;;;;;;;2.37;1.40;;;10.70;97.30;;;;;;4936058;29;20423;-89
2021/05/16 05:11:14;;;;;;;2.00;1.77;;;10.70;97.30;;;;;;4935832;29;20487;-88
2021/05/16 05:13:40;;;;;;;2.30;1.40;;;10.70;97.30;;;;;;4937444;29;20878;-88
2021/05/16 05:16:05;;;;;;;3.60;1.87;;;10.70;97.30;;;;;;4941533;29;20200;-89
2021/05/16 05:18:32;;;;;;;2.00;1.80;;;10.70;97.30;;;;;;4943001;29;20195;-89
2021/05/16 05:20:59;;;;;;;2.23;1.50;;;10.70;97.30;;;;;;4937153;29;20179;-89
2021/05/16 05:23:27;;;;;;;2.30;2.10;;;10.80;97.30;;;;;;4937880;29;20490;-89
2021/05/16 05:25:52;;;;;;;1.80;1.80;;;10.80;97.30;;;;;;4936172;29;21167;-89
2021/05/16 05:28:18;;;;;;;2.70;1.80;;;10.90;97.30;;;;;;4936805;29;20521;-89
2021/05/16 05:30:44;;;;;;;3.27;1.70;;;10.90;97.30;;;;;;4936157;29;20602;-88
2021/05/16 05:33:09;;;;;;;2.03;1.60;;;10.90;97.30;;;;;;4936240;29;20556;-89
2021/05/16 05:35:35;;;;;;;3.20;2.10;;;11.00;97.30;;;;;;4937196;29;20208;-89
2021/05/16 05:38:00;;;;;;;2.00;1.70;;;11.00;97.30;;;;;;4935011;29;20657;-88
2021/05/16 05:40:26;;;;;;;3.33;1.90;;;11.10;97.30;;;;;;4934416;29;20719;-88
2021/05/16 05:42:52;;;;;;;2.30;1.80;;;11.10;97.30;;;;;;4934592;29;20172;-89
2021/05/16 05:45:17;;;;;;;1.87;1.87;;;11.10;97.30;;;;;;4934337;29;20196;-89
2021/05/16 05:47:43;;;;;;;2.50;1.93;;;11.20;97.30;;;;;;4934830;29;20551;-89
2021/05/16 05:50:09;;;;;;;5.30;2.07;;;11.20;97.30;;;;;;4933957;29;20718;-89
2021/05/16 05:52:35;;;;;;;2.20;2.03;;;11.30;97.30;;;;;;4933721;29;20200;-89
2021/05/16 05:55:00;;;;;;;2.80;2.10;;;11.30;97.30;;;;;;4935444;29;20964;-89
2021/05/16 05:57:26;;;;;;;4.03;1.90;;;11.40;97.30;;;;;;4954256;28;20308;-89
2021/05/16 05:59:52;;;;;;;4.70;2.03;;;11.50;97.30;;;;;;4945302;29;20186;-88
2021/05/16 06:02:18;;;;;;;3.03;1.73;;;11.50;97.30;;;;;;4945465;28;20471;-88
2021/05/16 06:04:43;;;;;;;2.70;1.70;;;11.60;97.30;;;;;;4948604;28;20839;-88
2021/05/16 06:07:09;;;;;;;3.83;2.13;;;11.60;97.30;;;;;;4945672;28;20191;-88
2021/05/16 06:09:36;;;;;;;2.17;1.80;;;11.70;97.30;;;;;;4964482;28;20616;-89
2021/05/16 06:12:04;;;;;;;2.90;2.07;;;11.90;97.30;;;;;;4944243;29;20427;-89
2021/05/16 06:14:31;;;;;;;6.93;2.27;;;12.20;97.30;;;;;;4947209;28;20430;-89
2021/05/16 06:16:57;;;;;;;2.70;1.90;;;12.40;97.30;;;;;;4948527;28;20975;-88
2021/05/16 06:19:22;;;;;;;9.70;2.30;;;12.60;97.30;;;;;;4947117;28;20403;-89
2021/05/16 06:21:48;;;;;;;5.90;2.40;;;12.80;97.30;;;;;;4944781;29;20193;-90
2021/05/16 06:24:13;;;;;;;3.60;1.90;;;12.80;97.30;;;;;;4948664;28;20249;-89
2021/05/16 06:26:42;;;;;;;3.47;1.80;;;12.70;97.30;;;;;;4945199;28;20689;-89
2021/05/16 06:29:11;;;;;;;3.43;1.70;;;12.50;97.30;;;;;;4947638;28;20186;-88
2021/05/16 06:31:37;;;;;;;3.47;1.90;;;12.40;97.30;;;;;;4949698;28;20411;-89
2021/05/16 06:34:04;;;;;;;4.80;1.87;;;12.10;97.30;;;;;;4950615;28;20406;-89
2021/05/16 06:36:30;;;;;;;4.53;1.80;;;12.00;97.30;;;;;;4954955;28;20210;-90
2021/05/16 06:38:55;;;;;;;3.40;2.17;;;12.00;97.30;;;;;;4947076;28;20418;-88
2021/05/16 06:41:22;;;;;;;3.17;1.70;;;12.10;97.30;;;;;;4949261;28;20424;-88
2021/05/16 06:43:48;;;;;;;6.73;2.07;;;12.10;97.30;;;;;;4970303;28;20186;-88
2021/05/16 06:46:14;;;;;;;7.60;2.10;;;12.20;97.30;;;;;;4950857;29;20466;-88
2021/05/16 06:48:40;;;;;;;4.43;2.00;;;12.30;97.30;;;;;;4940215;28;20996;-87
2021/05/16 06:51:05;;;;;;;3.40;1.83;;;12.40;97.30;;;;;;4954411;29;20179;-88
2021/05/16 06:53:32;;;;;;;3.90;1.90;;;12.50;97.30;;;;;;4938401;29;20430;-88
2021/05/16 06:55:58;;;;;;;5.50;1.87;;;12.60;97.30;;;;;;4955370;29;20310;-88
2021/05/16 06:58:23;;;;;;;5.70;1.90;;;12.80;97.30;;;;;;4938613;29;20558;-88
2021/05/16 07:00:49;;;;;;;2.90;1.70;;;12.90;97.30;;;;;;4955441;29;20190;-89
2021/05/16 07:03:15;;;;;;;3.97;1.60;;;13.00;97.30;;;;;;4938169;29;20186;-87
2021/05/16 07:05:41;;;;;;;2.50;1.40;;;13.10;97.30;;;;;;4919237;29;20204;-89
2021/05/16 07:08:06;;;;;;;3.40;1.83;;;13.30;97.30;;;;;;4951595;28;20262;-88
2021/05/16 07:10:32;;;;;;;5.67;1.57;;;13.40;97.30;;;;;;4946486;29;20175;-87
2021/05/16 07:12:59;;;;;;;4.20;1.73;;;13.30;97.30;;;;;;4945549;29;20282;-87
2021/05/16 07:15:25;;;;;;;7.63;2.40;;;13.40;97.30;;;;;;4951438;29;20188;-88
2021/05/16 07:17:50;;;;;;;5.20;2.00;;;13.50;97.30;;;;;;4939899;29;20510;-89
2021/05/16 07:20:16;;;;;;;8.73;2.17;;;13.60;97.30;;;;;;4955385;29;20451;-88
2021/05/16 07:22:41;;;;;;;4.60;2.00;;;13.90;97.10;;;;;;4954120;29;20289;-88
2021/05/16 07:25:07;;;;;;;3.10;2.00;;;13.80;96.30;;;;;;4954286;29;20199;-88
2021/05/16 07:27:33;;;;;;;6.33;2.50;;;13.90;97.20;;;;;;4954149;29;20210;-87
2021/05/16 07:29:59;;;;;;;8.03;2.10;;;13.80;96.50;;;;;;4954245;29;20427;-87
2021/05/16 07:32:24;;;;;;;4.93;3.13;;;13.80;96.20;;;;;;4935079;28;20227;-88
2021/05/16 07:34:50;;;;;;;8.33;3.40;;;13.70;96.10;;;;;;4957724;28;20276;-88
2021/05/16 07:37:15;;;;;;;9.80;2.70;;;13.70;96.30;;;;;;4957882;28;20246;-89
2021/05/16 07:39:41;;;;;;;9.93;2.40;;;13.70;97.00;;;;;;4968731;28;20183;-89
2021/05/16 07:42:14;;;;;;;3.60;2.10;;;13.70;97.20;;;;;;4950505;29;20179;-88
2021/05/16 07:44:39;;;;;;;7.50;2.90;;;13.70;96.40;;;;;;4938419;29;20199;-88
2021/05/16 07:47:07;;;;;;;4.00;2.03;;;13.80;97.10;;;;;;4945577;29;20449;-88
2021/05/16 07:49:33;;;;;;;5.60;2.30;;;13.70;96.50;;;;;;4946266;28;20235;-85
2021/05/16 07:52:02;;;;;;;6.70;3.90;;;13.90;96.30;;;;;;4950046;29;20419;-88
2021/05/16 07:54:28;;;;;;;5.30;3.70;;;14.10;95.40;;;;;;4946306;28;20225;-88
2021/05/16 07:56:54;;;;;;;6.13;2.90;;;14.30;95.10;;;;;;4955106;29;20845;-89
2021/05/16 07:59:20;;;;;;;6.07;3.20;;;14.40;95.80;;;;;;4955660;29;20218;-88
2021/05/16 08:01:47;;;;;;;6.40;3.27;;;14.50;94.70;;;;;;4957072;29;20419;-88
2021/05/16 08:04:13;;;;;;;6.47;3.60;;;14.20;95.20;;;;;;4938726;29;20666;-89
2021/05/16 08:06:51;;;;;;;11.00;4.50;;;14.00;95.30;;;;;;4941587;29;20469;-88
2021/05/16 08:09:16;;;;;;;8.73;4.73;;;13.90;96.10;;;;;;4954165;29;20290;-90
2021/05/16 08:11:42;;;;;;;10.87;5.40;;;13.80;96.30;;;;;;4937458;29;20463;-88
2021/05/16 08:14:07;;;;;;;17.47;8.10;;;13.80;96.80;;;;;;4934259;29;20183;-89
2021/05/16 08:16:34;;;;;;;13.73;6.90;;;13.90;95.90;;;;;;4936025;29;20211;-92
2021/05/16 08:19:00;;;;;;;10.27;4.60;;;14.20;96.70;;;;;;4934361;29;20176;-90
2021/05/16 08:21:25;;;;;;;25.90;11.70;;;14.30;95.70;;;;;;4934347;29;20579;-88
2021/05/16 08:23:51;;;;;;;18.23;10.40;;;14.40;94.00;;;;;;4934015;29;20186;-87
2021/05/16 08:26:17;;;;;;;22.93;11.57;;;14.30;93.50;;;;;;4916497;29;20235;-90
2021/05/16 08:28:42;;;;;;;12.90;6.73;;;14.20;93.70;;;;;;4919082;29;20187;-92
2021/05/16 08:31:07;;;;;;;17.03;8.13;;;14.40;94.00;;;;;;4919531;29;20429;-91
2021/05/16 08:33:33;;;;;;;16.77;7.90;;;14.50;93.20;;;;;;4921142;29;20208;-92
2021/05/16 08:35:58;;;;;;;13.70;7.70;;;14.80;94.30;;;;;;4944904;29;20208;-90
2021/05/16 08:38:24;;;;;;;10.20;6.03;;;15.10;93.40;;;;;;4941335;29;20198;-89
2021/05/16 08:40:49;;;;;;;6.93;4.77;;;15.30;92.50;;;;;;4950092;29;20187;-90
2021/05/16 08:44:11;;;;;;;7.70;3.67;;;15.60;92.10;;;;;;4959098;28;20167;-91
2021/05/16 08:46:38;;;;;;;7.73;3.27;;;15.80;91.40;;;;;;4956952;28;20211;-90
2021/05/16 08:49:03;;;;;;;5.30;2.90;;;16.00;90.90;;;;;;4951639;29;20439;-92
2021/05/16 08:51:29;;;;;;;7.83;3.73;;;16.00;90.80;;;;;;4944337;29;20428;-89
2021/05/16 08:53:54;;;;;;;5.93;3.60;;;15.80;90.50;;;;;;4942039;29;20184;-89
2021/05/16 08:56:20;;;;;;;9.57;3.70;;;16.00;91.60;;;;;;4940737;29;20262;-91
2021/05/16 08:58:59;;;;;;;5.63;3.00;;;16.20;91.10;;;;;;4939290;29;20175;-87
2021/05/16 09:01:34;;;;;;;7.07;2.77;;;16.40;89.30;;;;;;4933265;29;20226;-89
2021/05/16 09:04:22;;;;;;;8.97;2.17;;;16.30;89.80;;;;;;4944301;29;20454;-90
2021/05/16 09:07:05;;;;;;;5.47;2.10;;;16.10;89.80;;;;;;4932737;29;20467;-91
2021/05/16 09:09:44;;;;;;;4.60;2.53;;;15.80;90.10;;;;;;4937225;29;20518;-91
2021/05/16 09:12:15;;;;;;;6.53;1.97;;;15.50;90.80;;;;;;4937799;29;20427;-88
2021/05/16 09:14:54;;;;;;;8.83;2.93;;;15.40;90.80;;;;;;4925605;29;20416;-88
2021/05/16 09:17:28;;;;;;;6.90;2.20;;;15.60;92.30;;;;;;4930045;29;20864;-89
2021/05/16 09:20:05;;;;;;;5.50;1.90;;;16.00;90.70;;;;;;4937738;29;20411;-88
2021/05/16 09:22:35;;;;;;;5.53;2.00;;;16.50;90.00;;;;;;4924545;29;20431;-88
2021/05/16 09:25:22;;;;;;;6.03;1.87;;;16.80;87.70;;;;;;4919594;29;20904;-90
2021/05/16 09:27:56;;;;;;;9.30;2.20;;;16.70;87.50;;;;;;4917884;29;20440;-90
2021/05/16 09:30:33;;;;;;;5.60;2.03;;;16.50;87.50;;;;;;4918015;29;20973;-89
2021/05/16 09:33:03;;;;;;;3.63;2.30;;;16.20;88.30;;;;;;4918188;29;20872;-89
2021/05/16 09:35:55;;;;;;;5.83;2.27;;;16.10;88.30;;;;;;4918114;29;21230;-91
2021/05/16 09:38:22;;;;;;;5.30;2.50;;;16.00;88.30;;;;;;4936599;29;20851;-90
2021/05/16 09:40:58;;;;;;;9.97;3.30;;;16.30;89.30;;;;;;4938457;29;20423;-90
2021/05/16 09:43:25;;;;;;;5.17;2.67;;;16.60;89.10;;;;;;4937386;29;20418;-89
2021/05/16 09:46:08;;;;;;;6.20;2.40;;;16.70;87.80;;;;;;4937224;29;20478;-90
2021/05/16 09:48:38;;;;;;;7.40;2.47;;;16.60;87.40;;;;;;4937847;29;20776;-90
2021/05/16 09:51:33;;;;;;;7.47;2.70;;;16.30;86.90;;;;;;4937270;29;20460;-88
2021/05/16 09:54:05;;;;;;;7.93;2.00;;;16.30;86.80;;;;;;4936691;29;20515;-89
2021/05/16 09:56:44;;;;;;;3.63;2.00;;;16.50;87.90;;;;;;4960337;23;20443;-78
2021/05/16 09:59:11;;;;;;;8.17;2.53;;;16.60;85.60;;;;;;4915746;29;20435;-78
2021/05/16 10:01:38;;;;;;;6.33;2.33;;;16.50;86.60;;;;;;4914685;29;20449;-77
2021/05/16 10:04:05;;;;;;;4.57;2.20;;;16.70;86.30;;;;;;4915677;29;20675;-79
2021/05/16 10:06:32;;;;;;;3.60;1.77;;;16.90;86.60;;;;;;4918396;29;20484;-79
2021/05/16 10:08:58;;;;;;;8.30;2.17;;;17.20;85.90;;;;;;4915475;29;20863;-79
2021/05/16 10:11:30;;;;;;;7.10;2.00;;;17.20;86.10;;;;;;4920634;29;20984;-78
2021/05/16 10:14:07;;;;;;;8.40;2.40;;;17.20;85.50;;;;;;4900686;29;20177;-79
2021/05/16 10:16:40;;;;;;;3.90;1.80;;;17.20;86.60;;;;;;4905250;29;20527;-80
2021/05/16 10:19:06;;;;;;;5.90;2.17;;;17.20;84.80;;;;;;4916082;29;20950;-81
2021/05/16 10:21:32;;;;;;;6.73;1.90;;;17.00;83.10;;;;;;4910981;29;20463;-80
2021/05/16 10:24:17;;;;;;;4.30;1.90;;;17.20;85.20;;;;;;4907116;29;20438;-79
2021/05/16 10:26:44;;;;;;;5.77;1.80;;;17.10;83.00;;;;;;4911805;29;20268;-79
2021/05/16 10:29:11;;;;;;;7.77;2.93;;;16.90;84.70;;;;;;4926750;29;20972;-80
2021/05/16 10:31:44;;;;;;;3.53;2.07;;;16.80;83.20;;;;;;4916861;29;20452;-80
2021/05/16 10:34:30;;;;;;;5.70;1.80;;;16.80;84.40;;;;;;4916254;29;20954;-80
2021/05/16 10:37:03;;;;;;;10.87;2.93;;;17.10;84.90;;;;;;4901774;29;20429;-80
2021/05/16 10:39:38;;;;;;;6.90;1.70;;;17.50;85.40;;;;;;4916750;29;20436;-80
2021/05/16 10:42:30;;;;;;;7.73;2.30;;;17.60;83.40;;;;;;4914734;29;20540;-79
2021/05/16 10:44:56;;;;;;;6.07;1.97;;;17.80;83.00;;;;;;4911153;29;20473;-79
2021/05/16 10:47:53;;;;;;;5.53;2.03;;;18.00;82.50;;;;;;4897213;29;20499;-81
2021/05/16 10:50:19;;;;;;;8.83;2.97;;;18.00;82.30;;;;;;4915227;29;20403;-81
2021/05/16 10:53:02;;;;;;;8.83;2.70;;;18.10;82.60;;;;;;4898735;29;21003;-79
2021/05/16 10:55:31;;;;;;;8.87;3.20;;;18.10;81.80;;;;;;4908024;29;20204;-80
2021/05/16 10:57:57;;;;;;;7.33;2.17;;;18.30;82.10;;;;;;4907392;29;20487;-79
2021/05/16 11:00:29;;;;;;;6.40;1.70;;;18.30;82.30;;;;;;4912694;29;20823;-79
2021/05/16 11:03:09;;;;;;;7.67;2.90;;;18.40;82.10;;;;;;4927948;29;20453;-79
2021/05/16 11:05:46;;;;;;;3.63;1.87;;;18.60;83.80;;;;;;4910370;29;20476;-80
2021/05/16 11:08:31;;;;;;;8.57;2.43;;;18.60;80.40;;;;;;4911848;29;20903;-79
2021/05/16 11:11:21;;;;;;;4.93;1.90;;;18.80;82.30;;;;;;4907774;29;20458;-77
2021/05/16 11:13:48;;;;;;;7.10;2.67;;;18.90;82.40;;;;;;4926119;29;20435;-77
2021/05/16 11:16:13;;;;;;;4.93;1.77;;;19.20;84.20;;;;;;4912147;29;20523;-76
2021/05/16 11:18:39;;;;;;;6.47;2.33;;;19.30;81.00;;;;;;4914181;29;20520;-78
2021/05/16 11:21:11;;;;;;;8.93;2.53;;;19.50;83.30;;;;;;4916394;29;20696;-80
2021/05/16 11:23:40;;;;;;;5.77;2.53;;;19.60;78.60;;;;;;4908272;29;20285;-77
2021/05/16 11:26:08;;;;;;;4.40;2.00;;;19.50;78.10;;;;;;4912497;29;20464;-77
2021/05/16 11:28:37;;;;;;;6.17;2.20;;;19.10;77.80;;;;;;4913512;29;20999;-75
2021/05/16 11:31:14;;;;;;;3.30;1.73;;;18.70;79.10;;;;;;4910822;29;20461;-76
2021/05/16 11:33:42;;;;;;;3.67;1.80;;;18.60;78.80;;;;;;4914699;29;20417;-76
2021/05/16 11:36:17;;;;;;;9.33;2.13;;;18.30;78.80;;;;;;4929611;29;20495;-76
2021/05/16 11:38:46;;;;;;;3.43;1.63;;;18.20;80.20;;;;;;4913955;29;20444;-77
2021/05/16 11:41:28;;;;;;;2.33;1.70;;;18.20;79.60;;;;;;4913167;29;20448;-77
2021/05/16 11:43:54;;;;;;;4.10;2.10;;;18.00;79.30;;;;;;4914582;29;20850;-75
2021/05/16 11:46:34;;;;;;;2.90;2.00;;;17.90;80.20;;;;;;4914103;29;20555;-78
2021/05/16 11:49:01;;;;;;;6.47;2.17;;;17.70;80.90;;;;;;4923276;29;21007;-78
2021/05/16 11:51:29;;;;;;;4.40;2.20;;;17.40;84.50;;;;;;4926699;29;21086;-77
2021/05/16 11:54:04;;;;;;;7.23;2.23;;;17.00;84.80;;;;;;4928624;29;20442;-78
2021/05/16 11:56:35;;;;;;;6.50;2.17;;;16.60;86.10;;;;;;4931349;29;20523;-80
2021/05/16 11:59:06;;;;;;;4.77;2.40;;;16.40;88.90;;;;;;4913048;29;20456;-79
2021/05/16 12:01:36;;;;;;;7.63;2.37;;;16.30;89.90;;;;;;4895816;29;20516;-81
2021/05/16 12:04:14;;;;;;;5.80;2.60;;;16.20;91.20;;;;;;4911579;29;20566;-81
2021/05/16 12:06:50;;;;;;;4.97;2.20;;;16.30;91.60;;;;;;4887556;29;20469;-81
2021/05/16 12:09:19;;;;;;;7.87;2.70;;;16.40;92.90;;;;;;4891266;29;20437;-80
2021/05/16 12:11:47;;;;;;;2.83;2.30;;;16.80;92.80;;;;;;4886212;29;20520;-80
2021/05/16 12:14:18;;;;;;;4.47;3.03;;;17.00;92.80;;;;;;4907616;29;20486;-81
2021/05/16 12:16:57;;;;;;;3.53;2.67;;;17.10;93.20;;;;;;4899869;29;20464;-80
2021/05/16 12:19:31;;;;;;;8.30;3.07;;;17.30;91.10;;;;;;4891878;29;20437;-82
2021/05/16 12:21:59;;;;;;;3.90;2.20;;;17.40;93.60;;;;;;4888499;29;20872;-80
2021/05/16 12:24:30;;;;;;;4.43;2.63;;;17.20;88.90;;;;;;4900790;29;20422;-80
2021/05/16 12:26:57;;;;;;;6.17;2.30;;;17.50;91.30;;;;;;4909972;29;20445;-80
2021/05/16 12:29:24;;;;;;;4.60;2.17;;;17.70;89.30;;;;;;4910146;29;20420;-81
2021/05/16 12:31:50;;;;;;;5.73;2.70;;;17.70;87.70;;;;;;4883378;29;20445;-81
2021/05/16 12:34:27;;;;;;;10.77;2.53;;;17.80;88.80;;;;;;4897180;29;20433;-81
2021/05/16 12:37:03;;;;;;;4.93;2.60;;;17.70;89.20;;;;;;4895167;29;20452;-80
2021/05/16 12:39:39;;;;;;;7.17;2.53;;;17.50;86.20;;;;;;4877437;29;20789;-78
2021/05/16 12:42:25;;;;;;;3.30;2.20;;;17.60;88.70;;;;;;4891990;29;20480;-76
2021/05/16 12:44:52;;;;;;;2.93;2.03;;;17.60;86.80;;;;;;4884359;29;20788;-80
2021/05/16 12:47:26;;;;;;;9.87;1.93;;;17.80;86.10;;;;;;4898111;29;20489;-77
2021/05/16 12:50:07;;;;;;;8.50;2.03;;;18.50;84.40;;;;;;4882330;29;20613;-79
2021/05/16 12:52:33;;;;;;;2.83;1.50;;;18.90;82.90;;;;;;4899028;29;20508;-78
2021/05/16 12:55:00;;;;;;;3.03;1.67;;;19.30;82.10;;;;;;4897278;29;20445;-78